createdAt,value
2023-02-28T00:01:16.865Z,3.22
2023-02-28T00:03:43.816Z,4.25
2023-02-28T00:06:11.212Z,3.78
2023-02-28T00:08:39.193Z,3.60
2023-02-28T00:11:11.997Z,4.15
2023-02-28T00:13:41.587Z,3.20
2023-02-28T00:16:14.471Z,3.83
2023-02-28T00:18:41.970Z,3.40
2023-02-28T00:21:09.211Z,3.70
2023-02-28T00:23:37.043Z,3.75
2023-02-28T00:26:04.809Z,3.90
2023-02-28T00:28:31.846Z,3.47
2023-02-28T00:31:01.246Z,3.55
2023-02-28T00:33:29.822Z,3.70
2023-02-28T00:36:07.690Z,3.80
2023-02-28T00:38:37.531Z,3.88
2023-02-28T00:41:07.461Z,3.83
2023-02-28T00:43:36.245Z,3.65
2023-02-28T00:46:04.920Z,3.55
2023-02-28T00:48:32.356Z,4.18
2023-02-28T00:50:59.285Z,3.78
2023-02-28T00:53:26.360Z,3.90
2023-02-28T00:55:53.303Z,3.95
2023-02-28T00:58:20.510Z,3.85
2023-02-28T01:00:50.532Z,4.13
2023-02-28T01:03:20.316Z,3.80
2023-02-28T01:05:48.349Z,4.38
2023-02-28T01:08:17.352Z,4.35
2023-02-28T01:10:44.450Z,4.45
2023-02-28T01:13:12.730Z,4.60
2023-02-28T01:15:46.562Z,4.40
2023-02-28T01:18:13.506Z,4.60
2023-02-28T01:20:40.425Z,4.93
2023-02-28T01:23:07.440Z,5.38
2023-02-28T01:25:37.809Z,4.30
2023-02-28T01:28:06.892Z,4.97
2023-02-28T01:30:34.721Z,4.50
2023-02-28T01:33:01.663Z,5.35
2023-02-28T01:35:28.578Z,5.07
2023-02-28T01:37:55.446Z,5.75
2023-02-28T01:40:23.465Z,5.07
2023-02-28T01:42:50.332Z,4.70
2023-02-28T01:45:27.730Z,4.72
2023-02-28T01:47:59.363Z,4.10
2023-02-28T01:50:30.972Z,3.78
2023-02-28T01:53:05.658Z,4.80
2023-02-28T01:55:33.269Z,3.85
2023-02-28T01:58:05.449Z,4.05
2023-02-28T02:00:33.420Z,4.28
2023-02-28T02:03:06.180Z,4.03
2023-02-28T02:05:33.304Z,3.97
2023-02-28T02:08:11.297Z,4.15
2023-02-28T02:10:44.176Z,4.13
2023-02-28T02:13:43.211Z,4.00
2023-02-28T02:16:28.426Z,4.05
2023-02-28T02:19:05.214Z,4.10
2023-02-28T02:21:40.904Z,4.18
2023-02-28T02:24:48.602Z,4.15
2023-02-28T02:27:19.346Z,4.57
2023-02-28T02:30:08.882Z,4.60
2023-02-28T02:32:50.667Z,4.35
2023-02-28T02:35:30.124Z,5.00
2023-02-28T02:38:09.919Z,4.47
2023-02-28T02:40:44.656Z,4.60
2023-02-28T02:43:26.954Z,4.80
2023-02-28T02:46:03.229Z,4.00
2023-02-28T02:48:34.573Z,4.18
2023-02-28T02:51:06.993Z,4.53
2023-02-28T02:53:38.844Z,4.47
2023-02-28T02:56:08.471Z,4.60
2023-02-28T02:58:43.202Z,4.05
2023-02-28T03:01:18.305Z,4.07
2023-02-28T03:03:47.972Z,4.03
2023-02-28T03:06:16.162Z,4.22
2023-02-28T03:08:43.056Z,4.30
2023-02-28T03:11:15.890Z,4.30
2023-02-28T03:14:00.110Z,4.47
2023-02-28T03:16:58.918Z,3.72
2023-02-28T03:19:39.154Z,4.03
2023-02-28T03:22:24.623Z,3.58
2023-02-28T03:25:07.364Z,4.47
2023-02-28T03:27:55.240Z,3.83
2023-02-28T03:30:24.837Z,3.70
2023-02-28T03:33:14.123Z,4.13
2023-02-28T03:35:51.106Z,4.07
2023-02-28T03:38:24.192Z,4.57
2023-02-28T03:40:59.064Z,4.70
2023-02-28T03:43:36.135Z,4.32
2023-02-28T03:46:10.347Z,5.22
2023-02-28T03:48:44.817Z,5.13
2023-02-28T03:51:17.432Z,5.00
2023-02-28T03:53:56.072Z,4.15
2023-02-28T03:56:28.733Z,4.78
2023-02-28T03:59:01.730Z,4.55
2023-02-28T04:01:35.092Z,4.88
2023-02-28T04:04:03.293Z,4.05
2023-02-28T04:06:33.520Z,4.53
2023-02-28T04:09:01.200Z,4.80
2023-02-28T04:11:36.571Z,5.13
2023-02-28T04:16:35.733Z,5.47
2023-02-28T04:19:08.393Z,5.70
2023-02-28T04:21:41.096Z,5.63
2023-02-28T04:24:14.990Z,5.18
2023-02-28T04:26:45.296Z,5.80
2023-02-28T04:29:14.344Z,5.85
2023-02-28T04:31:41.398Z,5.45
2023-02-28T04:34:08.332Z,6.05
2023-02-28T04:36:35.597Z,6.80
2023-02-28T04:39:02.658Z,5.93
2023-02-28T04:41:32.336Z,6.53
2023-02-28T04:43:59.760Z,6.22
2023-02-28T04:46:26.716Z,6.50
2023-02-28T04:48:55.007Z,6.82
2023-02-28T04:51:21.832Z,6.50
2023-02-28T04:53:49.044Z,7.20
2023-02-28T04:56:18.784Z,6.97
2023-02-28T04:58:45.943Z,6.97
2023-02-28T05:01:46.482Z,7.93
2023-02-28T05:04:13.359Z,8.25
2023-02-28T05:06:40.325Z,8.25
2023-02-28T05:09:07.475Z,8.77
2023-02-28T05:11:36.312Z,9.32
2023-02-28T05:14:10.445Z,9.18
2023-02-28T05:16:37.454Z,9.65
2023-02-28T05:19:05.042Z,10.60
2023-02-28T05:21:49.141Z,11.10
2023-02-28T05:24:16.103Z,9.85
2023-02-28T05:26:44.201Z,10.77
2023-02-28T05:29:11.601Z,11.18
2023-02-28T05:31:39.056Z,11.57
2023-02-28T05:34:06.049Z,11.40
2023-02-28T05:36:33.108Z,12.25
2023-02-28T05:39:00.121Z,10.75
2023-02-28T05:41:27.735Z,10.20
2023-02-28T05:43:54.973Z,12.98
2023-02-28T05:46:21.994Z,13.77
2023-02-28T05:48:49.593Z,13.18
2023-02-28T05:51:17.144Z,13.15
2023-02-28T05:53:44.387Z,14.30
2023-02-28T05:56:11.400Z,13.15
2023-02-28T05:58:38.352Z,14.25
2023-02-28T06:01:35.814Z,14.50
2023-02-28T06:04:05.035Z,15.98
2023-02-28T06:06:32.109Z,16.05
2023-02-28T06:08:59.259Z,16.88
2023-02-28T06:11:29.540Z,17.40
2023-02-28T06:14:00.626Z,17.67
2023-02-28T06:16:29.128Z,17.42
2023-02-28T06:18:58.514Z,16.40
2023-02-28T06:21:26.188Z,17.70
2023-02-28T06:23:53.160Z,18.95
2023-02-28T06:26:20.967Z,17.45
2023-02-28T06:28:48.245Z,17.48
2023-02-28T06:31:17.907Z,18.42
2023-02-28T06:33:46.473Z,18.23
2023-02-28T06:36:15.210Z,17.45
2023-02-28T06:38:42.528Z,20.10
2023-02-28T06:41:10.250Z,20.40
2023-02-28T06:43:41.710Z,21.50
2023-02-28T06:46:11.975Z,21.08
2023-02-28T06:48:38.911Z,21.42
2023-02-28T06:51:08.819Z,19.30
2023-02-28T06:53:36.093Z,19.73
2023-02-28T06:56:14.483Z,17.67
2023-02-28T06:58:41.736Z,18.17
2023-02-28T07:01:09.723Z,17.55
2023-02-28T07:03:37.876Z,17.48
2023-02-28T07:06:06.175Z,17.13
2023-02-28T07:08:34.129Z,16.25
2023-02-28T07:11:01.178Z,15.02
2023-02-28T07:13:28.184Z,14.63
2023-02-28T07:15:56.724Z,13.23
2023-02-28T07:18:23.790Z,12.52
2023-02-28T07:20:51.046Z,12.77
2023-02-28T07:23:18.535Z,12.85
2023-02-28T07:25:46.657Z,12.07
2023-02-28T07:28:14.786Z,12.05
2023-02-28T07:30:42.540Z,11.25
2023-02-28T07:33:10.035Z,10.02
2023-02-28T07:35:37.419Z,13.57
2023-02-28T07:38:04.864Z,11.10
2023-02-28T07:40:31.957Z,10.77
2023-02-28T07:43:01.617Z,9.00
2023-02-28T07:45:29.970Z,9.45
2023-02-28T07:47:57.181Z,10.02
2023-02-28T07:50:26.784Z,9.77
2023-02-28T07:52:54.067Z,10.77
2023-02-28T07:55:20.998Z,9.88
2023-02-28T07:57:47.919Z,9.70
2023-02-28T08:00:15.186Z,9.52
2023-02-28T08:02:42.175Z,9.18
2023-02-28T08:05:10.028Z,9.80
2023-02-28T08:07:37.031Z,8.90
2023-02-28T08:10:06.690Z,8.95
2023-02-28T08:12:33.713Z,10.00
2023-02-28T08:15:00.706Z,9.02
2023-02-28T08:17:28.072Z,8.90
2023-02-28T08:19:54.965Z,8.00
2023-02-28T08:22:21.936Z,8.20
2023-02-28T08:24:48.863Z,7.60
2023-02-28T08:27:15.821Z,7.95
2023-02-28T08:29:42.759Z,7.63
2023-02-28T08:32:23.630Z,8.60
2023-02-28T08:34:55.829Z,6.90
2023-02-28T08:37:22.728Z,9.15
2023-02-28T08:39:49.556Z,9.10
2023-02-28T08:42:16.451Z,9.13
2023-02-28T08:44:43.358Z,8.20
2023-02-28T08:47:10.295Z,7.32
2023-02-28T08:49:38.759Z,8.10
2023-02-28T08:52:05.931Z,8.32
2023-02-28T08:54:34.311Z,7.60
2023-02-28T08:57:01.506Z,7.50
2023-02-28T08:59:28.490Z,8.00
2023-02-28T09:01:55.370Z,7.78
2023-02-28T09:04:24.933Z,7.55
2023-02-28T09:06:52.362Z,8.55
2023-02-28T09:09:19.353Z,7.10
2023-02-28T09:11:46.267Z,7.53
2023-02-28T09:14:13.170Z,7.40
2023-02-28T09:16:40.121Z,7.75
2023-02-28T09:19:07.028Z,7.28
2023-02-28T09:21:34.110Z,7.55
2023-02-28T09:24:01.050Z,7.75
2023-02-28T09:26:34.944Z,6.85
2023-02-28T09:29:09.981Z,7.00
2023-02-28T09:31:36.966Z,6.20
2023-02-28T09:34:05.833Z,6.30
2023-02-28T09:36:43.711Z,7.18
2023-02-28T09:39:13.145Z,7.03
2023-02-28T09:41:53.444Z,7.63
2023-02-28T09:44:26.343Z,7.35
2023-02-28T09:47:00.711Z,7.82
2023-02-28T09:49:36.926Z,8.10
2023-02-28T09:52:13.256Z,6.93
2023-02-28T09:54:41.531Z,7.25
2023-02-28T09:57:28.679Z,7.60
2023-02-28T10:00:01.705Z,7.60
2023-02-28T10:02:59.322Z,7.70
2023-02-28T10:05:33.160Z,7.05
2023-02-28T10:08:17.109Z,7.65
2023-02-28T10:10:54.561Z,8.20
2023-02-28T10:14:02.619Z,7.57
2023-02-28T10:16:47.482Z,7.03
2023-02-28T10:19:21.310Z,7.03
2023-02-28T10:22:00.175Z,7.43
2023-02-28T10:24:40.352Z,7.40
2023-02-28T10:27:23.644Z,7.13
2023-02-28T10:29:55.409Z,7.57
2023-02-28T10:32:31.373Z,6.97
2023-02-28T10:35:20.790Z,6.47
2023-02-28T10:37:51.021Z,6.57
2023-02-28T10:40:23.422Z,6.65
2023-02-28T10:43:04.667Z,6.40
2023-02-28T10:45:35.852Z,6.63
2023-02-28T10:48:07.142Z,6.82
2023-02-28T10:50:46.082Z,6.63
2023-02-28T10:53:27.121Z,6.50
2023-02-28T10:56:17.547Z,6.03
2023-02-28T10:58:58.837Z,7.53
2023-02-28T11:01:47.339Z,6.38
2023-02-28T11:04:24.094Z,5.82
2023-02-28T11:07:03.112Z,6.07
2023-02-28T11:09:34.704Z,7.00
2023-02-28T11:12:03.632Z,6.63
2023-02-28T11:14:36.508Z,6.70
2023-02-28T11:17:25.494Z,7.68
2023-02-28T11:19:55.794Z,6.00
2023-02-28T11:22:29.921Z,5.80
2023-02-28T11:25:02.530Z,5.60
2023-02-28T11:27:32.515Z,7.28
2023-02-28T11:30:00.910Z,6.57
2023-02-28T11:32:30.108Z,6.78
2023-02-28T11:35:12.284Z,8.25
2023-02-28T11:37:40.543Z,7.10
2023-02-28T11:40:15.750Z,8.65
2023-02-28T11:42:58.857Z,6.20
2023-02-28T11:46:00.204Z,7.53
2023-02-28T11:48:40.843Z,6.78
2023-02-28T11:51:14.636Z,7.10
2023-02-28T11:54:19.043Z,7.10
2023-02-28T11:56:53.047Z,6.82
2023-02-28T11:59:50.330Z,7.05
2023-02-28T12:02:45.461Z,6.45
2023-02-28T12:05:25.673Z,6.93
2023-02-28T12:08:25.229Z,6.82
2023-02-28T12:11:28.266Z,6.95
2023-02-28T12:14:35.885Z,7.15
2023-02-28T12:17:28.891Z,6.97
2023-02-28T12:19:56.532Z,7.00
2023-02-28T12:23:00.727Z,7.25
2023-02-28T12:26:05.983Z,7.03
2023-02-28T12:28:45.492Z,7.22
2023-02-28T12:31:18.132Z,7.30
2023-02-28T12:33:53.607Z,8.88
2023-02-28T12:39:05.674Z,6.93
2023-02-28T12:41:41.414Z,7.47
2023-02-28T12:44:18.091Z,8.23
2023-02-28T12:46:52.291Z,7.57
2023-02-28T12:49:26.909Z,8.40
2023-02-28T12:51:54.315Z,7.38
2023-02-28T12:54:33.146Z,8.77
2023-02-28T12:57:12.076Z,8.48
2023-02-28T12:59:51.481Z,7.78
2023-02-28T13:02:30.482Z,8.18
2023-02-28T13:05:09.498Z,8.38
2023-02-28T13:07:59.419Z,8.18
2023-02-28T13:10:40.244Z,7.53
2023-02-28T13:13:07.904Z,8.73
2023-02-28T13:15:39.266Z,8.23
2023-02-28T13:18:06.784Z,8.75
2023-02-28T13:20:47.909Z,9.40
2023-02-28T13:23:39.641Z,9.85
2023-02-28T13:26:06.820Z,9.25
2023-02-28T13:28:54.243Z,10.63
2023-02-28T13:31:22.072Z,10.82
2023-02-28T13:33:51.631Z,9.70
2023-02-28T13:36:18.550Z,9.90
2023-02-28T13:38:50.577Z,10.07
2023-02-28T13:41:32.626Z,9.35
2023-02-28T13:44:03.164Z,11.32
2023-02-28T13:46:30.614Z,10.43
2023-02-28T13:48:57.750Z,10.27
2023-02-28T13:51:43.233Z,10.60
2023-02-28T13:54:45.168Z,10.25
2023-02-28T13:57:26.891Z,10.98
2023-02-28T14:00:09.522Z,11.00
2023-02-28T14:03:01.131Z,11.45
2023-02-28T14:05:30.860Z,11.88
2023-02-28T14:08:00.666Z,11.00
2023-02-28T14:11:05.446Z,12.18
2023-02-28T14:13:48.312Z,11.95
2023-02-28T14:16:19.192Z,12.40
2023-02-28T14:18:58.982Z,11.80
2023-02-28T14:21:32.218Z,11.52
2023-02-28T14:24:23.734Z,11.77
2023-02-28T14:27:02.581Z,12.52
2023-02-28T14:29:32.461Z,13.27
2023-02-28T14:32:06.465Z,13.00
2023-02-28T14:34:40.657Z,12.95
2023-02-28T14:37:17.545Z,12.50
2023-02-28T14:39:45.761Z,12.40
2023-02-28T14:42:34.688Z,12.40
2023-02-28T14:45:02.306Z,12.18
2023-02-28T14:47:34.931Z,12.32
2023-02-28T14:50:04.832Z,12.70
2023-02-28T14:52:33.668Z,11.15
2023-02-28T14:55:05.123Z,10.48
2023-02-28T14:57:35.104Z,12.05
2023-02-28T15:00:11.999Z,11.98
2023-02-28T15:02:40.593Z,11.75
2023-02-28T15:05:13.462Z,12.20
2023-02-28T15:07:41.094Z,12.60
2023-02-28T15:10:12.023Z,11.45
2023-02-28T15:12:41.684Z,12.20
2023-02-28T15:15:17.465Z,11.52
2023-02-28T15:17:51.658Z,11.63
2023-02-28T15:20:20.023Z,11.55
2023-02-28T15:22:51.240Z,11.63
2023-02-28T15:25:22.669Z,12.27
2023-02-28T15:27:53.988Z,11.13
2023-02-28T15:30:40.198Z,12.10
2023-02-28T15:33:18.328Z,11.70
2023-02-28T15:35:45.880Z,12.55
2023-02-28T15:38:25.813Z,12.32
2023-02-28T15:40:55.685Z,12.13
2023-02-28T15:43:29.145Z,11.63
2023-02-28T15:46:02.256Z,12.15
2023-02-28T15:48:33.782Z,13.38
2023-02-28T15:51:10.062Z,12.00
2023-02-28T15:53:43.378Z,12.60
2023-02-28T15:56:36.610Z,12.63
2023-02-28T15:59:07.337Z,12.50
2023-02-28T16:01:38.945Z,12.40
2023-02-28T16:04:16.146Z,12.93
2023-02-28T16:06:44.159Z,12.57
2023-02-28T16:09:16.053Z,12.43
2023-02-28T16:11:56.173Z,13.20
2023-02-28T16:14:28.065Z,13.27
2023-02-28T16:16:57.571Z,12.95
2023-02-28T16:19:25.180Z,13.43
2023-02-28T16:21:52.398Z,12.73
2023-02-28T16:24:19.582Z,12.32
2023-02-28T16:26:49.645Z,13.02
2023-02-28T16:29:25.777Z,13.35
2023-02-28T16:31:54.620Z,13.73
2023-02-28T16:34:22.606Z,14.20
2023-02-28T16:36:50.729Z,12.93
2023-02-28T16:39:18.322Z,14.30
2023-02-28T16:41:46.983Z,12.70
2023-02-28T16:44:30.373Z,13.25
2023-02-28T16:46:57.636Z,12.27
2023-02-28T16:49:24.869Z,13.43
2023-02-28T16:51:51.982Z,12.80
2023-02-28T16:54:18.977Z,11.63
2023-02-28T16:56:48.082Z,12.00
2023-02-28T16:59:19.451Z,11.85
2023-02-28T17:01:46.765Z,12.95
2023-02-28T17:04:15.321Z,11.38
2023-02-28T17:06:42.761Z,12.30
2023-02-28T17:09:17.305Z,11.55
2023-02-28T17:11:45.601Z,11.90
2023-02-28T17:14:12.668Z,12.68
2023-02-28T17:16:41.204Z,14.13
2023-02-28T17:19:12.877Z,14.52
2023-02-28T17:21:40.300Z,14.30
2023-02-28T17:24:07.788Z,15.27
2023-02-28T17:26:35.074Z,16.20
2023-02-28T17:29:02.237Z,14.90
2023-02-28T17:31:30.479Z,13.13
2023-02-28T17:33:57.854Z,13.68
2023-02-28T17:36:27.588Z,13.55
2023-02-28T17:38:59.649Z,13.55
2023-02-28T17:41:27.633Z,11.55
2023-02-28T17:43:54.738Z,12.65
2023-02-28T17:46:24.453Z,12.57
2023-02-28T17:48:54.147Z,12.73
2023-02-28T17:51:23.939Z,12.68
2023-02-28T17:53:51.098Z,12.60
2023-02-28T17:56:24.260Z,13.20
2023-02-28T17:58:53.451Z,13.18
2023-02-28T18:01:21.786Z,11.80
2023-02-28T18:03:49.371Z,12.82
2023-02-28T18:06:22.033Z,11.60
2023-02-28T18:08:49.758Z,12.15
2023-02-28T18:11:19.688Z,12.00
2023-02-28T18:13:53.952Z,11.23
2023-02-28T18:16:25.018Z,12.18
2023-02-28T18:18:52.190Z,11.60
2023-02-28T18:21:19.328Z,12.07
2023-02-28T18:23:50.219Z,13.68
2023-02-28T18:26:18.845Z,12.98
2023-02-28T18:28:46.519Z,11.52
2023-02-28T18:31:16.564Z,10.95
2023-02-28T18:33:54.045Z,11.88
2023-02-28T18:36:22.803Z,11.63
2023-02-28T18:38:53.552Z,11.77
2023-02-28T18:41:21.788Z,10.77
2023-02-28T18:43:51.438Z,11.63
2023-02-28T18:46:20.341Z,11.27
2023-02-28T18:48:48.277Z,10.50
2023-02-28T18:51:25.240Z,9.80
2023-02-28T18:53:52.861Z,10.80
2023-02-28T18:56:23.531Z,10.00
2023-02-28T18:58:51.571Z,9.20
2023-02-28T19:01:27.094Z,9.90
2023-02-28T19:03:54.477Z,9.85
2023-02-28T19:06:21.720Z,9.80
2023-02-28T19:08:52.963Z,9.60
2023-02-28T19:11:20.457Z,9.40
2023-02-28T19:13:47.860Z,10.18
2023-02-28T19:16:17.504Z,10.65
2023-02-28T19:18:44.965Z,10.27
2023-02-28T19:21:14.512Z,9.07
2023-02-28T19:23:42.476Z,9.73
2023-02-28T19:26:18.498Z,10.65
2023-02-28T19:28:46.107Z,10.07
2023-02-28T19:31:24.872Z,9.93
2023-02-28T19:33:53.158Z,10.48
2023-02-28T19:36:21.446Z,10.38
2023-02-28T19:38:49.426Z,10.00
2023-02-28T19:41:17.569Z,9.85
2023-02-28T19:43:44.958Z,8.80
2023-02-28T19:46:12.540Z,8.43
2023-02-28T19:48:40.434Z,7.90
2023-02-28T19:51:10.700Z,9.43
2023-02-28T19:53:39.405Z,8.13
2023-02-28T19:56:10.679Z,7.95
2023-02-28T19:58:38.749Z,7.25
2023-02-28T20:01:11.213Z,7.18
2023-02-28T20:03:38.741Z,8.50
2023-02-28T20:06:09.917Z,7.25
2023-02-28T20:08:38.276Z,7.25
2023-02-28T20:11:16.034Z,7.10
2023-02-28T20:13:44.493Z,7.35
2023-02-28T20:16:13.244Z,7.00
2023-02-28T20:18:41.767Z,7.13
2023-02-28T20:21:10.681Z,7.55
2023-02-28T20:23:39.215Z,6.78
2023-02-28T20:26:06.553Z,6.85
2023-02-28T20:28:33.990Z,7.03
2023-02-28T20:31:01.281Z,7.07
2023-02-28T20:33:28.603Z,6.57
2023-02-28T20:36:02.062Z,7.03
2023-02-28T20:38:29.339Z,6.45
2023-02-28T20:41:00.169Z,7.40
2023-02-28T20:43:27.982Z,8.10
2023-02-28T20:46:01.968Z,7.18
2023-02-28T20:48:30.968Z,7.50
2023-02-28T20:50:59.489Z,7.65
2023-02-28T20:53:27.949Z,7.60
2023-02-28T20:55:57.381Z,7.68
2023-02-28T20:58:26.498Z,8.13
2023-02-28T21:01:25.915Z,9.18
2023-02-28T21:04:02.134Z,8.25
2023-02-28T21:06:32.510Z,7.30
2023-02-28T21:08:59.773Z,8.10
2023-02-28T21:11:32.292Z,7.53
2023-02-28T21:14:01.445Z,7.72
2023-02-28T21:16:32.113Z,8.23
2023-02-28T21:19:05.321Z,7.82
2023-02-28T21:21:38.525Z,8.90
2023-02-28T21:24:06.488Z,8.82
2023-02-28T21:26:33.771Z,8.07
2023-02-28T21:29:02.919Z,7.63
2023-02-28T21:31:32.556Z,7.70
2023-02-28T21:34:01.070Z,8.00
2023-02-28T21:36:32.979Z,7.63
2023-02-28T21:39:08.426Z,7.72
2023-02-28T21:41:36.545Z,7.25
2023-02-28T21:44:04.591Z,7.68
2023-02-28T21:46:32.253Z,7.07
2023-02-28T21:48:59.591Z,8.27
2023-02-28T21:51:31.359Z,7.25
2023-02-28T21:54:00.273Z,7.32
2023-02-28T21:56:30.398Z,7.53
2023-02-28T21:59:01.033Z,7.22
2023-02-28T22:01:37.286Z,6.90
2023-02-28T22:04:07.403Z,6.60
2023-02-28T22:06:38.317Z,6.32
2023-02-28T22:09:08.252Z,6.88
2023-02-28T22:11:37.456Z,7.05
2023-02-28T22:14:05.305Z,7.22
2023-02-28T22:16:49.604Z,6.82
2023-02-28T22:19:17.967Z,5.82
2023-02-28T22:21:45.866Z,5.57
2023-02-28T22:24:13.000Z,5.78
2023-02-28T22:26:40.233Z,5.78
2023-02-28T22:29:07.536Z,5.05
2023-02-28T22:31:36.177Z,5.20
2023-02-28T22:34:06.700Z,5.40
2023-02-28T22:36:34.389Z,4.97
2023-02-28T22:39:01.979Z,5.25
2023-02-28T22:41:30.053Z,4.97
2023-02-28T22:44:00.010Z,5.75
2023-02-28T22:46:29.868Z,5.13
2023-02-28T22:48:59.002Z,4.93
2023-02-28T22:51:27.337Z,5.43
2023-02-28T22:53:56.133Z,5.43
2023-02-28T22:56:25.424Z,4.65
2023-02-28T22:58:55.412Z,5.88
2023-02-28T23:01:24.372Z,5.18
2023-02-28T23:03:52.787Z,4.63
2023-02-28T23:06:35.101Z,5.07
2023-02-28T23:09:06.814Z,5.47
2023-02-28T23:11:38.376Z,4.70
2023-02-28T23:14:05.687Z,4.30
2023-02-28T23:16:39.897Z,3.83
2023-02-28T23:19:27.865Z,4.53
2023-02-28T23:21:54.950Z,3.50
2023-02-28T23:24:24.316Z,3.28
2023-02-28T23:26:53.914Z,3.33
2023-02-28T23:29:22.390Z,3.83
2023-02-28T23:31:50.539Z,3.10
2023-02-28T23:34:26.426Z,3.45
2023-02-28T23:36:54.905Z,3.20
2023-02-28T23:39:23.121Z,3.60
2023-02-28T23:41:51.013Z,3.00
2023-02-28T23:44:18.250Z,3.65
2023-02-28T23:46:47.048Z,3.67
2023-02-28T23:49:15.209Z,3.40
2023-02-28T23:51:42.490Z,2.88
2023-02-28T23:54:10.115Z,2.95
2023-02-28T23:56:37.303Z,3.03
2023-02-28T23:59:04.421Z,3.30
